Time;durP1;ratioP1;P1;durP2;ratioP2;P2;SDS_P1;SDS_P2;PMS_P1;PMS_P2;Temp;Humidity;BMP_temperature;BMP_pressure;BME280_temperature;BME280_humidity;BME280_pressure;Samples;Min_cycle;Max_cycle;Signal;HPM_P1;HPM_P2
2021/05/03 00:02:26;;;;;;;18.75;12.35;;;3.00;99.90;;;;;;4995525;28;20080;-87
2021/05/03 00:04:52;;;;;;;19.33;12.65;;;3.10;99.90;;;;;;4993996;28;20141;-86
2021/05/03 00:07:24;;;;;;;18.15;12.55;;;3.10;99.90;;;;;;4992672;28;20120;-87
2021/05/03 00:09:51;;;;;;;15.57;11.90;;;3.10;99.90;;;;;;5010847;28;20126;-87
2021/05/03 00:12:17;;;;;;;15.55;11.50;;;3.00;99.90;;;;;;4991925;28;20125;-88
2021/05/03 00:14:43;;;;;;;15.18;11.63;;;3.00;99.90;;;;;;4970719;28;20176;-88
2021/05/03 00:17:10;;;;;;;17.20;12.18;;;3.00;99.90;;;;;;4990625;28;20505;-86
2021/05/03 00:19:38;;;;;;;16.75;11.77;;;2.90;99.90;;;;;;4992700;28;20249;-87
2021/05/03 00:22:04;;;;;;;19.27;12.77;;;2.90;99.90;;;;;;4987734;28;20137;-87
2021/05/03 00:24:31;;;;;;;15.57;11.82;;;2.80;99.90;;;;;;4992365;28;20105;-87
2021/05/03 00:26:59;;;;;;;18.30;13.05;;;2.70;99.90;;;;;;4988658;28;20463;-87
2021/05/03 00:29:25;;;;;;;21.17;14.50;;;2.70;99.90;;;;;;4991836;28;20120;-87
2021/05/03 00:31:52;;;;;;;19.02;14.32;;;2.80;99.90;;;;;;5005606;28;20683;-87
2021/05/03 00:34:18;;;;;;;20.52;13.60;;;2.90;99.90;;;;;;5003752;28;20329;-87
2021/05/03 00:36:49;;;;;;;20.45;14.07;;;2.90;99.90;;;;;;4977896;28;21743;-87
2021/05/03 00:39:15;;;;;;;22.10;13.88;;;3.00;99.90;;;;;;4977481;28;20078;-87
2021/05/03 00:41:42;;;;;;;23.20;15.15;;;3.00;99.90;;;;;;4991506;28;20085;-87
2021/05/03 00:44:08;;;;;;;20.52;14.40;;;3.10;99.90;;;;;;4988911;28;20054;-87
2021/05/03 00:46:35;;;;;;;19.33;14.27;;;3.10;99.90;;;;;;4989019;28;20773;-87
2021/05/03 00:49:01;;;;;;;20.15;15.40;;;3.00;99.90;;;;;;4992680;28;20069;-85
2021/05/03 00:51:33;;;;;;;21.33;14.90;;;3.10;99.90;;;;;;4996501;28;20042;-86
2021/05/03 00:54:02;;;;;;;22.30;14.82;;;3.10;99.90;;;;;;4997332;28;20510;-86
2021/05/03 00:56:28;;;;;;;19.67;13.43;;;3.10;99.90;;;;;;5015454;28;20143;-87
2021/05/03 00:58:58;;;;;;;19.17;13.75;;;3.10;99.90;;;;;;5015577;28;20049;-87
2021/05/03 01:01:24;;;;;;;20.50;14.95;;;2.90;99.90;;;;;;4997102;28;21487;-87
2021/05/03 01:03:53;;;;;;;21.58;15.00;;;2.90;99.90;;;;;;4996395;28;20069;-84
2021/05/03 01:06:22;;;;;;;22.60;15.45;;;2.90;99.90;;;;;;4993234;28;20072;-86
2021/05/03 01:08:48;;;;;;;20.42;15.77;;;2.80;99.90;;;;;;4980793;28;20464;-87
2021/05/03 01:11:15;;;;;;;23.27;16.38;;;2.80;99.90;;;;;;5000868;28;20069;-87
2021/05/03 01:13:46;;;;;;;23.60;17.67;;;2.80;99.90;;;;;;4993102;28;20081;-86
2021/05/03 01:16:13;;;;;;;35.22;18.77;;;2.90;99.90;;;;;;5001671;28;20065;-86
2021/05/03 01:18:39;;;;;;;26.27;19.38;;;2.90;99.90;;;;;;5009179;28;20069;-87
2021/05/03 01:21:07;;;;;;;27.67;19.55;;;2.90;99.90;;;;;;5011376;28;20061;-87
2021/05/03 01:23:33;;;;;;;31.67;19.83;;;2.90;99.90;;;;;;5033616;28;20104;-86
2021/05/03 01:26:01;;;;;;;30.48;20.85;;;2.90;99.90;;;;;;5027647;28;20082;-86
2021/05/03 01:28:27;;;;;;;28.63;20.23;;;2.90;99.90;;;;;;5018787;28;20077;-87
2021/05/03 01:30:54;;;;;;;32.15;21.17;;;2.90;99.90;;;;;;5014082;28;20129;-85
2021/05/03 01:33:21;;;;;;;30.40;20.77;;;2.80;99.90;;;;;;5013408;28;20133;-87
2021/05/03 01:35:48;;;;;;;28.80;20.30;;;2.80;99.90;;;;;;5016972;28;20054;-86
2021/05/03 01:38:16;;;;;;;29.20;21.65;;;2.70;99.90;;;;;;4997385;28;20131;-87
2021/05/03 01:40:47;;;;;;;29.88;21.65;;;2.60;99.90;;;;;;5014256;28;20134;-87
2021/05/03 01:43:16;;;;;;;32.30;23.45;;;2.60;99.90;;;;;;5013989;28;20049;-85
2021/05/03 01:45:45;;;;;;;31.85;23.00;;;2.60;99.90;;;;;;4991390;28;20073;-86
2021/05/03 01:48:22;;;;;;;34.97;24.30;;;2.60;99.90;;;;;;4996530;28;20191;-87
2021/05/03 01:50:55;;;;;;;35.50;25.58;;;2.60;99.90;;;;;;4996733;28;20054;-87
2021/05/03 01:53:23;;;;;;;35.92;25.73;;;2.60;99.90;;;;;;5013602;28;20140;-87
2021/05/03 01:55:54;;;;;;;43.22;26.25;;;2.70;99.90;;;;;;4991073;28;20045;-86
2021/05/03 01:58:24;;;;;;;36.35;25.33;;;2.70;99.90;;;;;;5009126;28;20459;-86
2021/05/03 02:00:51;;;;;;;34.00;23.90;;;2.70;99.90;;;;;;4992846;28;20141;-86
2021/05/03 02:03:23;;;;;;;35.60;24.92;;;2.70;99.90;;;;;;5018565;28;20125;-86
2021/05/03 02:05:50;;;;;;;32.47;24.40;;;2.70;99.90;;;;;;5012978;28;20068;-86
2021/05/03 02:08:20;;;;;;;36.17;24.65;;;2.70;99.90;;;;;;5013562;28;20133;-86
2021/05/03 02:10:46;;;;;;;37.15;25.13;;;2.70;99.90;;;;;;4995486;28;20408;-87
2021/05/03 02:13:13;;;;;;;36.97;24.73;;;2.70;99.90;;;;;;5012983;28;20072;-87
2021/05/03 02:15:41;;;;;;;36.47;23.98;;;2.70;99.90;;;;;;4994406;28;20042;-87
2021/05/03 02:18:08;;;;;;;34.65;23.83;;;2.70;99.90;;;;;;4996277;28;20077;-86
2021/05/03 02:20:34;;;;;;;35.45;24.23;;;2.70;99.90;;;;;;5012891;28;20164;-87
2021/05/03 02:23:01;;;;;;;34.00;25.42;;;2.80;99.90;;;;;;4997246;28;20089;-85
2021/05/03 02:25:28;;;;;;;34.28;24.23;;;2.80;99.90;;;;;;5015845;28;20050;-87
2021/05/03 02:27:55;;;;;;;36.75;23.95;;;2.90;99.90;;;;;;5018693;28;20069;-86
2021/05/03 02:30:21;;;;;;;33.97;23.20;;;2.90;99.90;;;;;;5019092;28;20121;-86
2021/05/03 02:32:48;;;;;;;33.22;23.27;;;2.90;99.90;;;;;;5008090;28;20112;-86
2021/05/03 02:35:17;;;;;;;29.35;20.60;;;2.90;99.90;;;;;;5025674;28;20126;-86
2021/05/03 02:37:47;;;;;;;31.10;22.45;;;2.90;99.90;;;;;;5013955;28;20132;-86
2021/05/03 02:40:17;;;;;;;33.42;22.33;;;3.00;99.90;;;;;;5015286;28;20080;-86
2021/05/03 02:42:51;;;;;;;32.10;21.33;;;3.00;99.90;;;;;;4995845;28;20074;-86
2021/05/03 02:45:20;;;;;;;32.55;23.15;;;3.00;99.90;;;;;;4992195;28;20113;-86
2021/05/03 02:47:46;;;;;;;35.20;23.45;;;3.00;99.90;;;;;;4996474;28;20121;-88
2021/05/03 02:50:14;;;;;;;30.52;21.98;;;3.00;99.90;;;;;;5008465;28;20112;-87
2021/05/03 02:52:46;;;;;;;32.08;22.35;;;3.00;99.90;;;;;;4998921;28;20069;-86
2021/05/03 02:55:16;;;;;;;31.42;22.95;;;3.00;99.90;;;;;;4981921;28;20147;-86
2021/05/03 02:57:44;;;;;;;33.28;23.33;;;2.90;99.90;;;;;;5010982;28;20049;-87
2021/05/03 03:00:20;;;;;;;36.05;24.30;;;2.80;99.90;;;;;;5028965;28;20081;-86
2021/05/03 03:02:46;;;;;;;36.38;24.30;;;2.80;99.90;;;;;;5005949;28;20226;-87
2021/05/03 03:05:12;;;;;;;38.08;23.90;;;2.70;99.90;;;;;;5010001;28;20121;-86
2021/05/03 03:07:39;;;;;;;34.10;24.98;;;2.70;99.90;;;;;;5010477;28;20053;-87
2021/05/03 03:10:06;;;;;;;38.83;26.85;;;2.70;99.90;;;;;;5011505;28;20191;-87
2021/05/03 03:12:36;;;;;;;40.10;27.13;;;2.70;99.90;;;;;;5011571;28;20069;-86
2021/05/03 03:15:10;;;;;;;36.38;26.10;;;2.60;99.90;;;;;;4995400;28;20053;-86
2021/05/03 03:17:36;;;;;;;34.92;24.65;;;2.60;99.90;;;;;;5003201;28;20467;-86
2021/05/03 03:20:07;;;;;;;39.45;26.00;;;2.60;99.90;;;;;;5011169;28;20070;-87
2021/05/03 03:22:36;;;;;;;37.85;26.33;;;2.60;99.90;;;;;;5022909;28;20367;-86
2021/05/03 03:25:04;;;;;;;37.58;26.55;;;2.60;99.90;;;;;;5030775;28;20128;-86
2021/05/03 03:27:33;;;;;;;40.47;27.25;;;2.60;99.90;;;;;;5032170;28;20068;-86
2021/05/03 03:30:00;;;;;;;37.45;26.83;;;2.50;99.90;;;;;;5012628;28;20053;-87
2021/05/03 03:32:27;;;;;;;38.10;26.05;;;2.50;99.90;;;;;;5014809;28;20084;-86
2021/05/03 03:34:55;;;;;;;41.13;26.73;;;2.50;99.90;;;;;;5015157;28;20514;-86
2021/05/03 03:37:22;;;;;;;41.17;26.90;;;2.50;99.90;;;;;;5032280;28;20073;-86
2021/05/03 03:39:49;;;;;;;38.92;25.58;;;2.50;99.90;;;;;;5031523;28;20115;-86
2021/05/03 03:42:18;;;;;;;41.83;26.73;;;2.50;99.90;;;;;;5027632;28;20047;-87
2021/05/03 03:44:44;;;;;;;36.33;25.55;;;2.50;99.90;;;;;;5026183;28;20143;-85
2021/05/03 03:47:11;;;;;;;36.22;25.67;;;2.60;99.90;;;;;;5015404;28;20128;-86
2021/05/03 03:49:38;;;;;;;36.75;25.85;;;2.60;99.90;;;;;;4997439;28;20123;-84
2021/05/03 03:52:05;;;;;;;39.65;26.10;;;2.60;99.90;;;;;;5015112;28;20132;-87
2021/05/03 03:54:31;;;;;;;39.80;26.45;;;2.60;99.90;;;;;;4981739;28;20046;-87
2021/05/03 03:56:58;;;;;;;39.63;26.17;;;2.50;99.90;;;;;;5030173;28;21358;-88
2021/05/03 03:59:24;;;;;;;37.03;24.63;;;2.50;99.90;;;;;;5013665;28;20079;-88
2021/05/03 04:01:51;;;;;;;37.38;26.88;;;2.50;99.90;;;;;;5010158;28;20156;-87
2021/05/03 04:04:23;;;;;;;39.72;25.95;;;2.40;99.90;;;;;;5030910;28;20077;-88
2021/05/03 04:26:20;;;;;;;40.08;26.95;;;2.30;99.90;;;;;;5030189;28;20051;-87
2021/05/03 04:28:48;;;;;;;43.67;27.05;;;2.30;99.90;;;;;;5029286;28;20155;-87
2021/05/03 04:31:16;;;;;;;43.85;27.58;;;2.30;99.90;;;;;;5010243;28;20045;-86
2021/05/03 04:33:44;;;;;;;40.03;27.65;;;2.30;99.90;;;;;;5029525;28;20117;-87
2021/05/03 04:36:13;;;;;;;40.65;27.33;;;2.30;99.90;;;;;;5015846;28;20094;-86
2021/05/03 04:38:45;;;;;;;39.83;26.48;;;2.30;99.90;;;;;;4999718;28;20084;-86
2021/05/03 04:41:12;;;;;;;40.20;27.65;;;2.40;99.90;;;;;;5030557;28;20049;-87
2021/05/03 04:43:39;;;;;;;46.42;27.70;;;2.30;99.90;;;;;;5028150;28;20064;-86
2021/05/03 04:46:08;;;;;;;39.50;26.73;;;2.40;99.90;;;;;;5006494;28;20121;-87
2021/05/03 04:48:35;;;;;;;41.97;27.35;;;2.50;99.90;;;;;;5003804;28;20046;-87
2021/05/03 04:51:02;;;;;;;40.53;26.80;;;2.50;99.90;;;;;;5014413;28;20049;-88
2021/05/03 04:53:28;;;;;;;40.03;25.48;;;2.50;99.90;;;;;;5026543;28;20069;-85
2021/05/03 04:56:01;;;;;;;37.65;25.95;;;2.60;99.90;;;;;;5027050;28;20060;-86
2021/05/03 04:58:28;;;;;;;42.22;25.77;;;2.60;99.90;;;;;;5017498;28;20073;-86
2021/05/03 05:00:57;;;;;;;40.40;25.75;;;2.70;99.90;;;;;;4998109;28;20435;-85
2021/05/03 05:03:24;;;;;;;34.05;23.25;;;2.70;99.90;;;;;;5013729;28;20060;-84
2021/05/03 05:05:53;;;;;;;31.27;22.80;;;2.80;99.90;;;;;;4974753;28;20053;-84
2021/05/03 05:08:21;;;;;;;35.20;23.75;;;2.90;99.90;;;;;;5008961;28;20073;-86
2021/05/03 05:10:47;;;;;;;31.23;22.13;;;3.00;99.90;;;;;;5031147;28;20057;-85
2021/05/03 05:13:15;;;;;;;29.90;21.88;;;3.10;99.90;;;;;;5029466;28;20143;-84
2021/05/03 05:15:41;;;;;;;30.23;22.08;;;3.20;99.90;;;;;;4994970;28;20049;-84
2021/05/03 05:18:10;;;;;;;35.95;22.25;;;3.20;99.90;;;;;;5026954;28;20407;-84
2021/05/03 05:20:37;;;;;;;35.03;21.15;;;3.30;99.90;;;;;;5027642;28;20053;-84
2021/05/03 05:23:07;;;;;;;26.38;20.10;;;3.40;99.90;;;;;;5012872;28;20430;-83
2021/05/03 05:25:38;;;;;;;27.85;20.60;;;3.30;99.90;;;;;;5002102;28;20042;-84
2021/05/03 05:28:05;;;;;;;28.40;20.17;;;3.40;99.90;;;;;;5029786;28;20117;-83
2021/05/03 05:30:33;;;;;;;27.65;19.50;;;3.40;99.90;;;;;;5024460;28;20120;-84
2021/05/03 05:33:00;;;;;;;28.33;20.83;;;3.40;99.90;;;;;;5006270;28;20129;-84
2021/05/03 05:35:26;;;;;;;26.52;20.20;;;3.40;99.90;;;;;;4987201;28;20414;-83
2021/05/03 05:37:53;;;;;;;28.45;20.40;;;3.50;99.90;;;;;;5015665;28;20279;-84
2021/05/03 05:40:19;;;;;;;34.88;18.52;;;3.50;99.90;;;;;;5025229;28;20060;-83
2021/05/03 05:42:45;;;;;;;28.80;20.52;;;3.60;99.90;;;;;;5021649;28;20049;-83
2021/05/03 05:45:16;;;;;;;24.15;17.63;;;3.80;99.90;;;;;;5020750;28;20084;-82
2021/05/03 05:47:42;;;;;;;26.63;18.35;;;4.00;99.90;;;;;;5029863;28;20069;-86
2021/05/03 05:50:11;;;;;;;29.92;18.25;;;4.10;99.90;;;;;;5018018;28;20397;-85
2021/05/03 05:52:38;;;;;;;26.45;17.50;;;4.20;99.90;;;;;;5034699;28;20080;-86
2021/05/03 05:55:05;;;;;;;23.17;16.92;;;4.40;99.90;;;;;;4996805;28;20370;-87
2021/05/03 05:57:33;;;;;;;23.77;17.10;;;4.50;99.90;;;;;;5017747;28;20050;-88
2021/05/03 06:00:03;;;;;;;21.67;16.23;;;4.80;99.90;;;;;;5020555;28;20042;-89
2021/05/03 06:02:36;;;;;;;20.63;15.63;;;5.00;99.90;;;;;;5039050;28;20045;-87
2021/05/03 06:05:03;;;;;;;18.52;14.57;;;5.10;99.90;;;;;;5030378;28;20103;-89
2021/05/03 06:07:29;;;;;;;24.63;15.88;;;5.20;99.90;;;;;;4999524;28;20121;-92
2021/05/03 06:09:57;;;;;;;19.00;14.90;;;5.50;99.90;;;;;;4994238;28;20055;-90
2021/05/03 06:12:24;;;;;;;17.58;14.48;;;5.80;99.90;;;;;;5015300;28;20061;-93
2021/05/03 06:14:53;;;;;;;17.25;13.73;;;6.10;99.90;;;;;;5021639;28;20069;-90
2021/05/03 06:17:20;;;;;;;16.92;13.38;;;6.20;99.90;;;;;;5027455;28;20060;-91
2021/05/03 06:19:50;;;;;;;19.02;12.80;;;6.40;99.90;;;;;;5009526;28;20096;-92
2021/05/03 06:22:17;;;;;;;17.88;12.02;;;6.60;99.90;;;;;;5038002;28;20121;-91
2021/05/03 06:24:44;;;;;;;15.75;12.20;;;7.00;99.90;;;;;;5045010;28;20041;-91
2021/05/03 06:27:11;;;;;;;15.82;12.38;;;7.30;99.90;;;;;;5032835;28;20057;-89
2021/05/03 06:29:42;;;;;;;17.50;12.57;;;7.40;99.90;;;;;;5037432;28;20044;-91
2021/05/03 06:32:09;;;;;;;17.02;13.13;;;7.60;99.90;;;;;;5056127;28;20037;-88
2021/05/03 06:34:37;;;;;;;17.42;12.82;;;7.70;99.90;;;;;;5051489;28;20045;-87
2021/05/03 06:37:04;;;;;;;15.55;12.05;;;7.90;99.90;;;;;;5050262;28;20185;-91
2021/05/03 06:39:31;;;;;;;13.70;10.73;;;8.10;99.90;;;;;;5043135;28;20104;-91
2021/05/03 06:41:59;;;;;;;14.57;10.85;;;8.10;99.90;;;;;;5048511;28;20458;-92
2021/05/03 06:44:34;;;;;;;14.32;10.55;;;8.20;99.90;;;;;;5025881;28;20037;-92
2021/05/03 06:47:04;;;;;;;12.70;10.45;;;8.40;99.90;;;;;;5041554;28;20049;-92
2021/05/03 06:49:30;;;;;;;13.18;9.32;;;8.60;99.90;;;;;;5022226;28;20050;-92
2021/05/03 06:52:00;;;;;;;12.18;9.95;;;8.60;99.90;;;;;;5022028;28;20045;-93
2021/05/03 06:54:26;;;;;;;12.07;9.95;;;8.70;99.90;;;;;;5024253;28;20115;-90
2021/05/03 06:56:53;;;;;;;11.60;9.57;;;8.80;99.90;;;;;;5022679;28;20127;-93
2021/05/03 06:59:20;;;;;;;13.38;9.20;;;9.00;99.90;;;;;;5036202;28;20045;-91
2021/05/03 07:01:46;;;;;;;12.43;9.80;;;9.30;99.90;;;;;;5027574;28;20049;-91
2021/05/03 07:04:21;;;;;;;11.35;9.30;;;9.40;99.90;;;;;;5017504;28;20092;-93
2021/05/03 07:06:54;;;;;;;14.70;9.35;;;9.60;99.90;;;;;;5030601;28;20221;-93
2021/05/03 07:09:20;;;;;;;14.88;8.70;;;9.80;98.50;;;;;;5014207;28;20435;-92
2021/05/03 07:11:47;;;;;;;10.55;8.23;;;9.90;98.70;;;;;;5033337;28;20129;-92
2021/05/03 07:14:19;;;;;;;;;;;10.30;99.90;;;;;;5049404;28;20053;-92
2021/05/03 07:16:51;;;;;;;10.45;8.43;;;10.70;95.20;;;;;;5020783;28;19931;-91
2021/05/03 07:19:18;;;;;;;11.13;7.07;;;11.40;96.60;;;;;;5038130;28;20068;-92
2021/05/03 07:21:45;;;;;;;11.65;7.03;;;11.90;79.20;;;;;;5037583;28;20053;-93
2021/05/03 07:24:16;;;;;;;7.68;6.20;;;12.30;75.50;;;;;;5052452;28;20041;-93
2021/05/03 07:26:44;;;;;;;9.43;6.37;;;12.80;72.20;;;;;;5054438;28;20045;-92
2021/05/03 07:29:14;;;;;;;8.48;6.00;;;13.30;71.80;;;;;;5036461;28;20307;-92
2021/05/03 07:31:47;;;;;;;9.82;6.95;;;13.60;65.90;;;;;;5147282;23;20046;-92
2021/05/03 07:34:15;;;;;;;9.55;6.78;;;13.40;67.10;;;;;;5026541;28;20104;-91
2021/05/03 07:36:42;;;;;;;10.60;6.70;;;12.70;67.10;;;;;;5012410;28;20390;-91
2021/05/03 07:39:08;;;;;;;7.63;6.72;;;12.40;69.60;;;;;;5004524;28;20084;-90
2021/05/03 07:41:36;;;;;;;11.32;7.82;;;12.10;70.20;;;;;;5025404;28;20102;-92
2021/05/03 07:44:03;;;;;;;7.72;6.75;;;12.10;68.50;;;;;;5020689;28;20037;-93
2021/05/03 07:46:51;;;;;;;;;;;;;;;;;;;;;
2021/05/03 07:49:58;;;;;;;12.10;7.75;;;11.80;70.10;;;;;;5021984;28;20053;-92
2021/05/03 07:52:47;;;;;;;10.25;6.88;;;12.10;71.40;;;;;;5015364;28;20050;-91
2021/05/03 07:55:16;;;;;;;8.15;6.55;;;12.90;66.80;;;;;;4990989;28;20137;-88
2021/05/03 07:57:45;;;;;;;8.43;6.55;;;13.70;64.90;;;;;;5012700;28;20045;-86
2021/05/03 08:00:13;;;;;;;8.63;6.32;;;13.20;62.90;;;;;;5027626;28;20056;-90
2021/05/03 08:02:39;;;;;;;10.10;6.63;;;12.90;64.50;;;;;;5030224;28;20158;-87
2021/05/03 08:05:07;;;;;;;7.93;6.82;;;13.10;64.30;;;;;;5007720;28;20114;-92
2021/05/03 08:07:34;;;;;;;7.13;6.32;;;13.10;61.40;;;;;;5016274;28;20057;-92
2021/05/03 08:10:03;;;;;;;7.90;7.00;;;12.50;63.20;;;;;;5028660;28;20062;-92
2021/05/03 08:12:35;;;;;;;11.30;7.45;;;12.40;65.90;;;;;;5031728;28;20081;-91
2021/05/03 08:15:10;;;;;;;7.47;6.30;;;12.80;66.50;;;;;;5038939;28;20046;-88
2021/05/03 08:17:43;;;;;;;6.30;5.70;;;13.40;60.80;;;;;;5030695;28;20061;-90
2021/05/03 08:20:12;;;;;;;7.63;5.88;;;13.90;59.70;;;;;;5029582;28;20084;-89
2021/05/03 08:22:43;;;;;;;7.55;5.70;;;14.40;59.80;;;;;;5028302;28;20030;-93
2021/05/03 08:25:16;;;;;;;8.20;5.88;;;14.20;58.70;;;;;;5013164;28;20042;-91
2021/05/03 08:27:44;;;;;;;7.70;5.37;;;14.90;58.90;;;;;;5042639;28;20053;-92
2021/05/03 08:30:13;;;;;;;7.13;5.05;;;14.80;56.30;;;;;;5020511;28;20067;-88
2021/05/03 08:32:41;;;;;;;6.68;5.43;;;14.80;53.30;;;;;;5017647;28;20049;-91
2021/05/03 08:35:08;;;;;;;7.80;5.15;;;15.50;54.80;;;;;;4984165;28;20053;-90
2021/05/03 08:37:37;;;;;;;11.88;5.60;;;14.40;53.80;;;;;;5029682;28;20137;-91
2021/05/03 08:40:04;;;;;;;7.47;5.20;;;13.50;56.00;;;;;;5014642;28;20069;-90
2021/05/03 08:42:33;;;;;;;8.73;6.30;;;12.10;57.20;;;;;;5006333;28;20050;-89
2021/05/03 08:45:02;;;;;;;7.20;5.72;;;11.40;65.60;;;;;;5023807;28;20049;-91
2021/05/03 08:47:35;;;;;;;9.35;7.32;;;10.90;67.40;;;;;;5031673;28;20246;-91
2021/05/03 08:50:19;;;;;;;8.80;6.35;;;10.50;68.30;;;;;;5044586;28;20038;-91
2021/05/03 08:52:48;;;;;;;8.02;6.85;;;10.20;73.30;;;;;;5009126;28;20060;-91
2021/05/03 08:55:17;;;;;;;9.48;7.07;;;9.90;97.50;;;;;;5007312;28;20065;-93
2021/05/03 08:57:44;;;;;;;9.13;7.38;;;9.70;99.90;;;;;;5006402;28;20073;-91
2021/05/03 09:00:13;;;;;;;9.07;8.05;;;9.60;99.90;;;;;;5011566;28;20057;-89
2021/05/03 09:02:46;;;;;;;9.55;7.45;;;9.50;99.90;;;;;;5016519;28;20099;-90
2021/05/03 09:05:14;;;;;;;12.98;7.78;;;9.70;99.90;;;;;;5022413;28;20046;-91
2021/05/03 09:07:51;;;;;;;13.32;7.80;;;10.00;99.90;;;;;;5033038;28;20049;-93
2021/05/03 09:10:19;;;;;;;10.65;6.90;;;10.50;97.20;;;;;;5000121;28;20060;-91
2021/05/03 09:12:47;;;;;;;8.05;5.57;;;10.90;90.00;;;;;;5034251;28;20038;-92
2021/05/03 09:15:23;;;;;;;6.50;5.80;;;11.60;91.80;;;;;;5010031;28;20894;-91
2021/05/03 09:17:51;;;;;;;9.20;6.35;;;12.00;91.30;;;;;;5026660;28;20057;-90
2021/05/03 09:20:21;;;;;;;8.27;5.50;;;12.20;87.60;;;;;;5014968;28;20049;-93
2021/05/03 09:25:49;;;;;;;6.90;5.68;;;12.10;69.30;;;;;;5027735;28;20042;-93
2021/05/03 09:28:28;;;;;;;7.35;5.22;;;11.80;67.40;;;;;;5014351;28;20053;-92
2021/05/03 09:30:56;;;;;;;5.28;4.78;;;11.70;63.60;;;;;;5033944;28;20355;-91
2021/05/03 09:33:33;;;;;;;5.93;4.25;;;12.20;62.10;;;;;;5027535;28;20077;-92
2021/05/03 09:36:14;;;;;;;6.15;4.65;;;13.40;59.10;;;;;;5004041;28;20057;-89
2021/05/03 09:38:51;;;;;;;6.03;4.47;;;14.20;54.20;;;;;;5033402;28;20050;-93
2021/05/03 09:41:21;;;;;;;4.93;4.00;;;13.80;54.00;;;;;;5014338;28;20054;-89
2021/05/03 09:44:03;;;;;;;4.47;4.07;;;13.30;54.30;;;;;;5030329;28;20677;-90
2021/05/03 09:46:36;;;;;;;5.30;4.35;;;13.10;55.90;;;;;;5017319;28;20042;-91
2021/05/03 09:49:09;;;;;;;5.35;4.10;;;12.50;55.40;;;;;;5031670;28;20125;-91
2021/05/03 09:52:01;;;;;;;5.57;4.30;;;12.10;56.00;;;;;;5034947;28;20046;-90
2021/05/03 09:54:30;;;;;;;7.97;4.47;;;11.70;57.80;;;;;;5018088;28;20407;-92
2021/05/03 09:57:05;;;;;;;4.93;3.95;;;11.20;57.60;;;;;;4993660;28;20053;-92
2021/05/03 09:59:40;;;;;;;4.63;4.20;;;10.90;59.80;;;;;;5008493;28;20689;-91
2021/05/03 10:02:17;;;;;;;8.77;4.47;;;10.80;60.30;;;;;;5026792;28;20115;-92
2021/05/03 10:05:19;;;;;;;5.85;4.25;;;10.70;62.30;;;;;;5043218;28;20379;-94
2021/05/03 10:07:53;;;;;;;5.28;3.95;;;10.80;61.20;;;;;;4980290;28;20065;-93
2021/05/03 10:10:36;;;;;;;4.75;3.90;;;11.20;61.10;;;;;;5021139;28;20112;-92
2021/05/03 10:16:15;;;;;;;3.75;3.38;;;14.20;57.80;;;;;;5020623;28;19924;-88
2021/05/03 10:18:43;;;;;;;3.50;2.70;;;16.50;49.00;;;;;;5018935;28;20053;-86
2021/05/03 10:21:14;;;;;;;3.53;2.55;;;17.50;43.60;;;;;;5008392;28;20050;-88
2021/05/03 10:23:44;;;;;;;3.05;2.70;;;18.40;42.40;;;;;;5007480;28;20049;-88
2021/05/03 10:26:12;;;;;;;4.43;2.72;;;19.00;38.20;;;;;;5012753;28;20050;-89
2021/05/03 10:28:56;;;;;;;3.85;2.70;;;17.50;40.00;;;;;;5021272;28;20037;-87
2021/05/03 10:31:26;;;;;;;5.80;2.65;;;16.40;41.80;;;;;;5012939;28;20060;-89
2021/05/03 10:33:53;;;;;;;3.10;2.53;;;16.10;40.70;;;;;;5035279;28;20034;-90
2021/05/03 10:36:34;;;;;;;2.42;2.20;;;16.70;40.10;;;;;;5037692;28;20038;-92
2021/05/03 10:39:21;;;;;;;2.88;2.58;;;18.20;39.10;;;;;;5012560;28;20116;-90
2021/05/03 10:42:10;;;;;;;8.05;3.00;;;17.90;36.60;;;;;;5005725;28;20113;-90
2021/05/03 10:45:20;;;;;;;3.60;3.15;;;16.20;41.50;;;;;;4999009;28;20069;-91
2021/05/03 10:47:51;;;;;;;2.88;2.55;;;15.20;43.40;;;;;;5001402;28;20108;-92
2021/05/03 10:50:37;;;;;;;5.97;3.05;;;14.80;43.90;;;;;;4993049;28;20041;-90
2021/05/03 10:56:06;;;;;;;4.03;2.88;;;14.30;45.90;;;;;;5013736;28;20108;-89
2021/05/03 10:58:52;;;;;;;5.15;3.58;;;14.00;45.50;;;;;;5014794;28;20065;-89
2021/05/03 11:01:19;;;;;;;4.60;3.03;;;14.00;46.60;;;;;;5015874;28;20050;-90
2021/05/03 11:03:55;;;;;;;4.65;3.33;;;14.20;47.80;;;;;;4996553;28;20049;-90
2021/05/03 11:06:39;;;;;;;5.93;2.80;;;14.30;46.30;;;;;;5029837;28;20050;-90
2021/05/03 11:09:28;;;;;;;4.82;2.80;;;14.20;46.50;;;;;;5029339;28;20399;-90
2021/05/03 11:12:01;;;;;;;3.38;2.72;;;14.40;46.10;;;;;;5017927;28;20047;-90
2021/05/03 11:14:31;;;;;;;6.30;2.72;;;14.30;47.50;;;;;;5027610;28;20042;-90
2021/05/03 11:17:04;;;;;;;5.47;3.00;;;14.70;47.80;;;;;;4993787;28;20050;-90
2021/05/03 11:22:06;;;;;;;3.35;2.75;;;16.60;43.10;;;;;;5015694;28;20046;-92
2021/05/03 11:24:47;;;;;;;3.08;2.50;;;18.40;41.30;;;;;;5016335;28;20108;-91
2021/05/03 11:27:32;;;;;;;3.65;2.67;;;18.60;37.50;;;;;;5003047;28;20721;-92
2021/05/03 11:30:10;;;;;;;5.68;2.80;;;17.70;40.00;;;;;;5002559;28;20045;-91
2021/05/03 11:32:39;;;;;;;3.35;2.90;;;16.40;41.30;;;;;;4983528;28;20416;-92
2021/05/03 11:38:12;;;;;;;5.30;3.20;;;14.60;45.40;;;;;;5009486;28;20046;-90
2021/05/03 11:46:07;;;;;;;3.22;2.50;;;17.10;41.30;;;;;;5003929;28;20030;-91
2021/05/03 11:48:41;;;;;;;2.90;2.20;;;16.40;40.00;;;;;;5007712;28;20047;-90
2021/05/03 11:51:10;;;;;;;3.40;2.63;;;16.00;40.80;;;;;;4979454;28;20050;-91
2021/05/03 11:53:45;;;;;;;3.40;2.20;;;16.10;41.70;;;;;;4988383;28;20042;-91
2021/05/03 11:56:29;;;;;;;3.28;2.10;;;15.80;41.90;;;;;;4973989;28;20050;-89
2021/05/03 11:59:02;;;;;;;2.75;1.98;;;15.30;42.40;;;;;;4996751;28;20098;-90
2021/05/03 12:01:30;;;;;;;2.53;2.22;;;14.70;42.70;;;;;;4978317;28;20668;-90
2021/05/03 12:03:58;;;;;;;3.55;2.67;;;14.50;44.40;;;;;;4960806;28;20065;-91
2021/05/03 12:06:37;;;;;;;3.15;2.67;;;14.50;44.80;;;;;;5000264;28;20050;-91
2021/05/03 12:09:14;;;;;;;2.63;2.00;;;14.80;45.20;;;;;;4989778;28;20050;-90
2021/05/03 12:11:59;;;;;;;3.30;2.35;;;15.10;45.10;;;;;;4985837;28;20045;-90
2021/05/03 12:14:46;;;;;;;3.45;2.10;;;15.40;44.80;;;;;;4981580;28;20128;-91
2021/05/03 12:17:23;;;;;;;3.08;2.13;;;16.90;42.80;;;;;;4990518;28;20038;-91
2021/05/03 12:20:11;;;;;;;4.47;2.05;;;18.20;40.10;;;;;;5019322;28;20057;-92
2021/05/03 12:22:39;;;;;;;4.05;2.30;;;18.70;39.60;;;;;;4997279;28;20064;-90
2021/05/03 12:25:09;;;;;;;3.63;2.30;;;18.90;36.80;;;;;;5010084;28;20061;-93
2021/05/03 12:27:39;;;;;;;6.10;2.17;;;17.70;38.80;;;;;;4993075;28;20046;-93
2021/05/03 12:30:14;;;;;;;3.90;1.80;;;18.10;39.30;;;;;;4988346;28;20054;-92
2021/05/03 12:32:45;;;;;;;4.32;2.15;;;18.80;37.20;;;;;;5030801;28;20471;-92
2021/05/03 12:35:16;;;;;;;3.83;1.80;;;19.50;37.00;;;;;;5003357;28;20046;-91
2021/05/03 12:37:44;;;;;;;4.28;2.00;;;20.00;38.90;;;;;;5019484;28;20056;-92
2021/05/03 12:40:13;;;;;;;2.13;1.80;;;20.30;36.50;;;;;;5005421;28;20061;-90
2021/05/03 12:42:46;;;;;;;1.75;1.50;;;20.90;32.70;;;;;;5004995;28;20108;-92
2021/05/03 12:45:19;;;;;;;2.17;1.80;;;20.90;34.90;;;;;;4993293;28;20057;-93
2021/05/03 12:47:57;;;;;;;3.72;1.77;;;21.10;34.70;;;;;;5010516;28;20046;-90
2021/05/03 12:50:39;;;;;;;3.33;1.67;;;19.60;32.70;;;;;;5012927;28;20406;-90
2021/05/03 12:53:25;;;;;;;2.58;2.10;;;18.50;36.40;;;;;;5012720;28;20062;-89
2021/05/03 12:56:06;;;;;;;3.50;2.10;;;18.90;36.20;;;;;;5003074;28;20526;-88
2021/05/03 12:58:40;;;;;;;2.35;1.70;;;19.70;35.30;;;;;;4988599;28;20050;-87
2021/05/03 13:04:18;;;;;;;3.35;1.80;;;20.90;32.30;;;;;;5012049;28;20088;-90
2021/05/03 13:09:42;;;;;;;2.00;1.80;;;21.50;30.40;;;;;;5006506;28;20081;-87
2021/05/03 13:29:24;;;;;;;3.05;2.05;;;16.60;39.30;;;;;;5009963;28;20054;-86
2021/05/03 13:31:53;;;;;;;2.35;1.83;;;18.10;37.90;;;;;;5006408;28;21258;-88
2021/05/03 13:34:20;;;;;;;1.88;1.50;;;20.00;37.70;;;;;;4994177;28;20363;-86
2021/05/03 13:36:50;;;;;;;3.58;1.55;;;21.40;33.00;;;;;;5008876;28;20069;-90
2021/05/03 13:39:16;;;;;;;2.75;1.30;;;22.40;32.10;;;;;;4994617;28;20058;-90
2021/05/03 13:41:48;;;;;;;2.63;1.33;;;22.30;30.80;;;;;;5005935;28;20046;-91
2021/05/03 13:44:18;;;;;;;3.22;1.50;;;22.00;29.80;;;;;;5010138;28;20054;-91
2021/05/03 13:46:46;;;;;;;2.78;2.00;;;21.50;30.40;;;;;;4994681;28;20113;-91
2021/05/03 13:49:14;;;;;;;2.83;1.90;;;19.10;32.50;;;;;;5010634;28;20054;-91
2021/05/03 13:51:44;;;;;;;3.45;1.92;;;18.20;35.60;;;;;;4994132;28;20129;-92
2021/05/03 13:54:12;;;;;;;2.97;2.10;;;16.80;36.70;;;;;;5028309;28;20049;-88
2021/05/03 13:56:41;;;;;;;3.88;1.95;;;16.10;39.60;;;;;;5028179;28;20037;-91
2021/05/03 13:59:08;;;;;;;3.08;1.95;;;15.80;39.70;;;;;;5019211;28;20069;-89
2021/05/03 14:01:34;;;;;;;2.47;1.95;;;15.90;41.30;;;;;;5019641;28;20034;-88
2021/05/03 14:04:01;;;;;;;3.13;1.90;;;16.00;38.70;;;;;;5037192;28;20041;-91